Allensville, Kentucky
Current Conditions -  °F | °C
As of 7:52 AM on Friday 24 Oct 2014 (Local Time) from KCKV Reporting Station
Scattered Clouds Scattered Clouds  
Wind Chill: 44°   Ceiling: Unl
Heat Index: 44°   Visibility: 7mi
Dew Point: 42°   Wind: 0mph
Humidity: 93%   Direction: NA
Pressure: 30.14"   Gusts: NA
Location:  36.72°N, 87.07°W
Report Text: KCKV 241252Z AUTO 00000KT 7SM SCT085 07/06 A3014 RMK AO2 SLP208 T00670056
Loading
Personal Weather Stations






























Interactive Weather Map
Tropical Storm Tracking
New forecast layout! Learn more

10-Day Weather Forecast

Advertisements
Track Severe Weather on mobile